»·PEaware :: KLM420 KFMN-KPRC

KLM420 :: KFMN-KPRC

FLIGHT INFORMATION

Flight Status: Arrived
Operator:
KLM
More flights by this operator :: More flights under this callsign
Pilot: Anonymous 36068 (36068)
Aircraft: BEECH AIRCRAFT PREMIER
(PRM1)
More flights by this aircraft type
Origin: KFMN Four Corners Regl
United States
Destination: KPRC Love
United States
More flights between these airports :: More routes between these airports
Route: CHACO1 GUP J96 DRK
File this flight plan on PilotEdge
Remarks:
Altitude:
(Current/Filed)
26,000ft
Speed:
(Current/Filed)
400kts
Departed: 25-Sep-21 07:32 AM
Arrived: 25-Sep-21 08:22 AM
Distance/Time
Traveled:
240nm/0:49
Distance/Time
To Go:
Arrived

Flight Plot

Page will automatically refresh every two minutes.

Flight plan parsing failed; only flown route is shown


Map Options




Map Legend


Flown Route
Filed Route
Departure Airport
Arrival Airport
Navaid (VOR, NDB)
Fix

Horizontal Profiles

Position Reports

Time Latitude Longitude Heading Altitude Ground
Speed
25-Sep-21 07:14 36.739655 -108.220173 268 5510ft 0kts
25-Sep-21 07:15 36.739655 -108.220173 268 5510ft 0kts
25-Sep-21 07:16 36.739655 -108.220173 268 5510ft 0kts
25-Sep-21 07:17 36.739655 -108.220173 268 5510ft 0kts
25-Sep-21 07:18 36.739655 -108.220173 268 5510ft 0kts
25-Sep-21 07:19 36.739655 -108.220173 268 5510ft 0kts
25-Sep-21 07:20 36.739655 -108.220173 268 5510ft 0kts
25-Sep-21 07:21 36.739655 -108.220173 268 5510ft 0kts
25-Sep-21 07:22 36.739655 -108.220173 268 5510ft 0kts
25-Sep-21 07:23 36.739655 -108.220173 268 5510ft 0kts
25-Sep-21 07:24 36.739655 -108.220173 268 5510ft 0kts
25-Sep-21 07:25 36.739655 -108.220173 268 5510ft 0kts
25-Sep-21 07:26 36.740306 -108.220694 359 5510ft 0kts
25-Sep-21 07:27 36.740799 -108.219566 88 5510ft 9kts
25-Sep-21 07:28 36.740819 -108.218583 87 5510ft 0kts
25-Sep-21 07:29 36.740819 -108.218583 87 5510ft 0kts
25-Sep-21 07:30 36.741120 -108.217222 31 5510ft 8kts
25-Sep-21 07:31 36.741295 -108.232051 268 5510ft 143kts
25-Sep-21 07:32 36.716676 -108.272840 156 7507ft 205kts
25-Sep-21 07:33 36.670751 -108.217125 138 9632ft 261kts
25-Sep-21 07:34 36.606707 -108.188248 199 12553ft 269kts
25-Sep-21 07:35 36.538183 -108.229287 204 15110ft 279kts
25-Sep-21 07:36 36.467841 -108.272064 204 17428ft 287kts
25-Sep-21 07:37 36.395501 -108.316326 205 19521ft 295kts
25-Sep-21 07:38 36.321158 -108.361844 205 21422ft 302kts
25-Sep-21 07:39 36.245120 -108.408287 205 23137ft 309kts
25-Sep-21 07:40 36.167575 -108.455561 205 24703ft 315kts
25-Sep-21 07:41 36.088354 -108.503749 205 26138ft 321kts
25-Sep-21 07:42 36.004090 -108.554899 205 26374ft 359kts
25-Sep-21 07:43 35.910199 -108.611736 206 26376ft 390kts
25-Sep-21 07:44 35.810128 -108.672138 205 26378ft 411kts
25-Sep-21 07:45 35.707964 -108.733638 205 26375ft 409kts
25-Sep-21 07:46 35.606155 -108.794743 205 26375ft 408kts
25-Sep-21 07:47 35.504805 -108.856843 215 26355ft 409kts
25-Sep-21 07:48 35.416273 -108.935279 195 26372ft 405kts
25-Sep-21 07:49 35.361568 -109.047106 259 26375ft 413kts
25-Sep-21 07:50 35.339705 -109.185339 256 26374ft 415kts
25-Sep-21 07:51 35.317174 -109.324654 262 26370ft 420kts
25-Sep-21 07:52 35.309293 -109.467664 267 26375ft 423kts
25-Sep-21 07:53 35.307056 -109.611870 267 26358ft 424kts
25-Sep-21 07:54 35.283875 -109.748135 227 26346ft 416kts
25-Sep-21 07:55 35.223964 -109.867066 254 26303ft 422kts
25-Sep-21 07:56 35.199236 -110.007465 256 26288ft 423kts
25-Sep-21 07:57 35.176713 -110.148755 258 26247ft 424kts
25-Sep-21 07:58 35.157383 -110.291221 259 26237ft 425kts
25-Sep-21 07:59 35.140540 -110.433526 260 26237ft 425kts
25-Sep-21 08:00 35.121459 -110.576009 258 26237ft 424kts
25-Sep-21 08:01 35.098980 -110.717224 256 26224ft 424kts
25-Sep-21 08:02 35.073296 -110.857719 254 24694ft 423kts
25-Sep-21 08:03 35.045410 -110.996931 254 23008ft 426kts
25-Sep-21 08:04 35.016036 -111.137947 254 21016ft 432kts
25-Sep-21 08:05 34.986694 -111.276882 254 19007ft 414kts
25-Sep-21 08:06 34.959144 -111.410115 255 17011ft 400kts
25-Sep-21 08:07 34.933575 -111.535631 255 14987ft 351kts
25-Sep-21 08:08 34.922797 -111.646652 263 12956ft 313kts
25-Sep-21 08:09 34.914946 -111.746427 263 10930ft 284kts
25-Sep-21 08:10 34.907561 -111.839352 264 9144ft 268kts
25-Sep-21 08:11 34.900450 -111.928999 264 9102ft 263kts
25-Sep-21 08:12 34.893648 -112.013254 264 9097ft 226kts
25-Sep-21 08:13 34.887605 -112.087457 264 9104ft 216kts
25-Sep-21 08:14 34.864098 -112.151620 231 9025ft 216kts
25-Sep-21 08:15 34.827523 -112.209049 232 8327ft 214kts
25-Sep-21 08:16 34.791703 -112.265349 232 7895ft 200kts
25-Sep-21 08:17 34.756324 -112.311059 221 7412ft 174kts
25-Sep-21 08:18 34.724699 -112.344775 221 6606ft 139kts
25-Sep-21 08:19 34.695118 -112.376275 221 5851ft 141kts
25-Sep-21 08:20 34.667632 -112.405513 221 5145ft 124kts
25-Sep-21 08:21 34.651476 -112.423109 274 5008ft 7kts
25-Sep-21 08:22 34.651609 -112.423750 326 5007ft 5kts
25-Sep-21 08:23 34.654960 -112.420489 7 4991ft 9kts
25-Sep-21 08:24 34.655204 -112.421634 216 4989ft 3kts

Navigation Log

Ident Type
Flight plan parsing failed, navigation log unavailable